GMMX/RAK METAR and TAF weather

Enter ICAO airport designator
Station Type Date Time Source
GMMX METAR 2020/11/28 20:30 UTC NOAA

GMMX 282030Z VRB02KT 9999 SCT026 13/08 Q1014 NOSIG


Station Type Date Time Source
GMMX Decoded METAR 2020/11/28 20:30 UTC NOAA

Marrakech, Morocco (GMMX) 31-37N 008-02W 466M
Nov 28, 2020 - 03:30 PM EST / 2020.11.28 2030 UTC
Wind: Variable at 2 MPH (2 KT):0
Visibility: greater than 7 mile(s):0
Sky conditions: partly cloudy
Temperature: 55 F (13 C)
Dew Point: 46 F (8 C)
Relative Humidity: 71%
Pressure (altimeter): 29.94 in. Hg (1014 hPa)
ob: GMMX 282030Z VRB02KT 9999 SCT026 13/08 Q1014 NOSIG
cycle: 20

Station Type Date Time Source
GMMX TAF 2020/11/28 18:18 UTC NOAA

TAF GMMX 281700Z 2818/2924 18005KT 8000 SCT023 BKN090
TEMPO 2913/2924 28016KT 5000 SHRA SCT015 BKN020

Example: see airport list